PWSweather.com
Personal Weather Stations
Station Observations
IMAZOWIE6
WarszawaPL

WarszawaPL

Lat: 52.27957, Lon: 21.05489

Elevation: 100

Station Type: WS1080

http://stacjapogody.waw.pl/

High Low Average
Temperature 38.5°F3.6°C 29.5°F-1.4°C 34.6°F1.4°C
Dew Point 11.0°F-11.7°C -5.8°F-21.0°C 5.4°F-14.8°C
Winds Calm Calm Calm Calm Calm NCalm N
Wind Gusts 3.4 mph5.5 kmh -- --
Humidity 38% 20% 30%
Pressure 29.79 in1008.8 mb 29.52 in999.7 mb -
Precipitation 0.00 in0.0 mm - -
Hour Temp Dew Point Humidity Winds Wind Gusts Pressure Precip Precip Rate Daily Precip Total
12:02 AM 29.5°F-1.4°C -5.8°F-21.0°C 21% Calm Calm -- 29.79 in1008.8 mb 0.00 in0.0 mm 0.00 in0.0 mm 0.00 in0.0 mm
12:17 AM 29.5°F-1.4°C -4.9°F-20.5°C 22% Calm Calm -- 29.79 in1008.8 mb 0.00 in0.0 mm 0.00 in0.0 mm 0.00 in0.0 mm
12:32 AM 29.7°F-1.3°C -2.9°F-19.4°C 24% Calm Calm 0.6 mph1.0 kmh 29.79 in1008.8 mb 0.00 in0.0 mm 0.00 in0.0 mm 0.00 in0.0 mm
12:47 AM 29.5°F-1.4°C -2.2°F-19.0°C 25% Calm Calm -- 29.78 in1008.5 mb 0.00 in0.0 mm 0.00 in0.0 mm 0.00 in0.0 mm
01:02 AM 29.7°F-1.3°C -1.3°F-18.5°C 26% Calm Calm 0.6 mph1.0 kmh 29.78 in1008.5 mb 0.00 in0.0 mm 0.00 in0.0 mm 0.00 in0.0 mm
01:17 AM 29.7°F-1.3°C -0.5°F-18.1°C 27% Calm Calm 1.4 mph2.3 kmh 29.77 in1008.1 mb 0.00 in0.0 mm 0.00 in0.0 mm 0.00 in0.0 mm
01:32 AM 29.8°F-1.2°C 0.5°F-17.5°C 28% Calm Calm 0.6 mph1.0 kmh 29.76 in1007.8 mb 0.00 in0.0 mm 0.00 in0.0 mm 0.00 in0.0 mm
01:47 AM 29.7°F-1.3°C 1.1°F-17.2°C 29% Calm Calm 0.6 mph1.0 kmh 29.76 in1007.8 mb 0.00 in0.0 mm 0.00 in0.0 mm 0.00 in0.0 mm
02:02 AM 29.7°F-1.3°C 1.1°F-17.2°C 29% Calm Calm -- 29.76 in1007.8 mb 0.00 in0.0 mm 0.00 in0.0 mm 0.00 in0.0 mm
02:17 AM 29.7°F-1.3°C 1.8°F-16.8°C 30% Calm Calm -- 29.76 in1007.8 mb 0.00 in0.0 mm 0.00 in0.0 mm 0.00 in0.0 mm
02:32 AM 29.7°F-1.3°C 2.5°F-16.4°C 31% Calm Calm 3.4 mph5.5 kmh 29.75 in1007.5 mb 0.00 in0.0 mm 0.00 in0.0 mm 0.00 in0.0 mm
02:47 AM 29.8°F-1.2°C 2.6°F-16.3°C 31% Calm Calm -- 29.74 in1007.1 mb 0.00 in0.0 mm 0.00 in0.0 mm 0.00 in0.0 mm
03:02 AM 29.8°F-1.2°C 3.3°F-15.9°C 32% Calm Calm -- 29.73 in1006.8 mb 0.00 in0.0 mm 0.00 in0.0 mm 0.00 in0.0 mm
03:17 AM 30.2°F-1.0°C 4.3°F-15.4°C 33% Calm Calm 0.6 mph1.0 kmh 29.73 in1006.8 mb 0.00 in0.0 mm 0.00 in0.0 mm 0.00 in0.0 mm
03:32 AM 30.2°F-1.0°C 5.0°F-15.0°C 34% Calm Calm -- 29.73 in1006.8 mb 0.00 in0.0 mm 0.00 in0.0 mm 0.00 in0.0 mm
03:47 AM 30.4°F-0.9°C 5.1°F-14.9°C 34% Calm Calm -- 29.72 in1006.4 mb 0.00 in0.0 mm 0.00 in0.0 mm 0.00 in0.0 mm
04:02 AM 30.6°F-0.8°C 5.3°F-14.8°C 34% Calm Calm -- 29.72 in1006.4 mb 0.00 in0.0 mm 0.00 in0.0 mm 0.00 in0.0 mm
04:17 AM 30.7°F-0.7°C 6.1°F-14.4°C 35% Calm Calm -- 29.71 in1006.1 mb 0.00 in0.0 mm 0.00 in0.0 mm 0.00 in0.0 mm
04:32 AM 30.9°F-0.6°C 6.2°F-14.3°C 35% Calm Calm -- 29.71 in1006.1 mb 0.00 in0.0 mm 0.00 in0.0 mm 0.00 in0.0 mm
04:47 AM 31.1°F-0.5°C 7.0°F-13.9°C 36% Calm Calm 2.8 mph4.5 kmh 29.70 in1005.8 mb 0.00 in0.0 mm 0.00 in0.0 mm 0.00 in0.0 mm
05:02 AM 31.3°F-0.4°C 7.2°F-13.8°C 36% Calm Calm 0.6 mph1.0 kmh 29.70 in1005.8 mb 0.00 in0.0 mm 0.00 in0.0 mm 0.00 in0.0 mm
05:17 AM 31.5°F-0.3°C 8.0°F-13.3°C 37% Calm Calm -- 29.68 in1005.1 mb 0.00 in0.0 mm 0.00 in0.0 mm 0.00 in0.0 mm
05:32 AM 31.5°F-0.3°C 8.0°F-13.3°C 37% Calm Calm -- 29.69 in1005.4 mb 0.00 in0.0 mm 0.00 in0.0 mm 0.00 in0.0 mm
05:47 AM 31.8°F-0.1°C 8.9°F-12.8°C 38% Calm Calm -- 29.68 in1005.1 mb 0.00 in0.0 mm 0.00 in0.0 mm 0.00 in0.0 mm
06:02 AM 32.0°F0.0°C 9.0°F-12.8°C 38% Calm Calm -- 29.68 in1005.1 mb 0.00 in0.0 mm 0.00 in0.0 mm 0.00 in0.0 mm
06:17 AM 32.0°F0.0°C 9.0°F-12.8°C 38% Calm Calm -- 29.68 in1005.1 mb 0.00 in0.0 mm 0.00 in0.0 mm 0.00 in0.0 mm
06:32 AM 32.2°F0.1°C 9.2°F-12.7°C 38% Calm Calm 0.6 mph1.0 kmh 29.67 in1004.7 mb 0.00 in0.0 mm 0.00 in0.0 mm 0.00 in0.0 mm
06:47 AM 32.2°F0.1°C 9.2°F-12.7°C 38% Calm Calm -- 29.67 in1004.7 mb 0.00 in0.0 mm 0.00 in0.0 mm 0.00 in0.0 mm
07:02 AM 32.5°F0.3°C 9.5°F-12.5°C 38% Calm Calm -- 29.66 in1004.4 mb 0.00 in0.0 mm 0.00 in0.0 mm 0.00 in0.0 mm
07:17 AM 32.4°F0.2°C 9.4°F-12.6°C 38% Calm Calm -- 29.66 in1004.4 mb 0.00 in0.0 mm 0.00 in0.0 mm 0.00 in0.0 mm
07:32 AM 32.7°F0.4°C 9.1°F-12.7°C 37% Calm Calm -- 29.66 in1004.4 mb 0.00 in0.0 mm 0.00 in0.0 mm 0.00 in0.0 mm
07:47 AM 32.7°F0.4°C 9.1°F-12.7°C 37% Calm Calm -- 29.65 in1004.1 mb 0.00 in0.0 mm 0.00 in0.0 mm 0.00 in0.0 mm
08:02 AM 32.9°F0.5°C 8.0°F-13.3°C 35% Calm Calm -- 29.65 in1004.1 mb 0.00 in0.0 mm 0.00 in0.0 mm 0.00 in0.0 mm
08:17 AM 33.1°F0.6°C 7.5°F-13.6°C 34% Calm Calm -- 29.65 in1004.1 mb 0.00 in0.0 mm 0.00 in0.0 mm 0.00 in0.0 mm
08:32 AM 33.3°F0.7°C 7.0°F-13.9°C 33% Calm Calm -- 29.64 in1003.7 mb 0.00 in0.0 mm 0.00 in0.0 mm 0.00 in0.0 mm
08:47 AM 33.4°F0.8°C 5.8°F-14.6°C 31% Calm Calm -- 29.63 in1003.4 mb 0.00 in0.0 mm 0.00 in0.0 mm 0.00 in0.0 mm
09:02 AM 33.6°F0.9°C 5.2°F-14.9°C 30% Calm Calm -- 29.62 in1003.0 mb 0.00 in0.0 mm 0.00 in0.0 mm 0.00 in0.0 mm
09:17 AM 33.8°F1.0°C 3.9°F-15.6°C 28% Calm Calm -- 29.63 in1003.4 mb 0.00 in0.0 mm 0.00 in0.0 mm 0.00 in0.0 mm
09:32 AM 34.0°F1.1°C 2.5°F-16.4°C 26% Calm Calm -- 29.63 in1003.4 mb 0.00 in0.0 mm 0.00 in0.0 mm 0.00 in0.0 mm
09:47 AM 34.2°F1.2°C 0.9°F-17.3°C 24% Calm Calm -- 29.62 in1003.0 mb 0.00 in0.0 mm 0.00 in0.0 mm 0.00 in0.0 mm
10:02 AM 34.3°F1.3°C -0.8°F-18.2°C 22% Calm Calm -- 29.62 in1003.0 mb 0.00 in0.0 mm 0.00 in0.0 mm 0.00 in0.0 mm
10:17 AM 34.5°F1.4°C -1.6°F-18.7°C 21% Calm Calm 1.4 mph2.3 kmh 29.62 in1003.0 mb 0.00 in0.0 mm 0.00 in0.0 mm 0.00 in0.0 mm
10:32 AM 34.5°F1.4°C -2.6°F-19.2°C 20% Calm Calm -- 29.62 in1003.0 mb 0.00 in0.0 mm 0.00 in0.0 mm 0.00 in0.0 mm
10:47 AM 34.7°F1.5°C -2.5°F-19.2°C 20% Calm Calm -- 29.61 in1002.7 mb 0.00 in0.0 mm 0.00 in0.0 mm 0.00 in0.0 mm
11:02 AM 34.9°F1.6°C -2.3°F-19.1°C 20% Calm Calm 0.6 mph1.0 kmh 29.60 in1002.4 mb 0.00 in0.0 mm 0.00 in0.0 mm 0.00 in0.0 mm
11:17 AM 35.1°F1.7°C -2.2°F-19.0°C 20% Calm Calm -- 29.60 in1002.4 mb 0.00 in0.0 mm 0.00 in0.0 mm 0.00 in0.0 mm
11:32 AM 35.1°F1.7°C -2.2°F-19.0°C 20% Calm Calm -- 29.60 in1002.4 mb 0.00 in0.0 mm 0.00 in0.0 mm 0.00 in0.0 mm
11:47 AM 35.4°F1.9°C -0.9°F-18.3°C 21% Calm Calm -- 29.60 in1002.4 mb 0.00 in0.0 mm 0.00 in0.0 mm 0.00 in0.0 mm
12:02 PM 35.4°F1.9°C -0.9°F-18.3°C 21% Calm Calm 0.6 mph1.0 kmh 29.58 in1001.7 mb 0.00 in0.0 mm 0.00 in0.0 mm 0.00 in0.0 mm
12:17 PM 35.8°F2.1°C 0.4°F-17.6°C 22% Calm Calm 0.6 mph1.0 kmh 29.58 in1001.7 mb 0.00 in0.0 mm 0.00 in0.0 mm 0.00 in0.0 mm
12:32 PM 35.8°F2.1°C 1.4°F-17.0°C 23% Calm Calm 0.6 mph1.0 kmh 29.58 in1001.7 mb 0.00 in0.0 mm 0.00 in0.0 mm 0.00 in0.0 mm
12:47 PM 36.1°F2.3°C 1.7°F-16.8°C 23% Calm Calm -- 29.57 in1001.4 mb 0.00 in0.0 mm 0.00 in0.0 mm 0.00 in0.0 mm
01:02 PM 36.0°F2.2°C 2.4°F-16.4°C 24% Calm Calm -- 29.57 in1001.4 mb 0.00 in0.0 mm 0.00 in0.0 mm 0.00 in0.0 mm
01:17 PM 36.3°F2.4°C 2.7°F-16.3°C 24% Calm Calm -- 29.56 in1001.0 mb 0.00 in0.0 mm 0.00 in0.0 mm 0.00 in0.0 mm
01:32 PM 36.3°F2.4°C 3.6°F-15.8°C 25% Calm Calm -- 29.56 in1001.0 mb 0.00 in0.0 mm 0.00 in0.0 mm 0.00 in0.0 mm
01:47 PM 36.7°F2.6°C 3.9°F-15.6°C 25% Calm Calm -- 29.56 in1001.0 mb 0.00 in0.0 mm 0.00 in0.0 mm 0.00 in0.0 mm
02:02 PM 36.5°F2.5°C 4.6°F-15.2°C 26% Calm Calm -- 29.55 in1000.7 mb 0.00 in0.0 mm 0.00 in0.0 mm 0.00 in0.0 mm
02:17 PM 36.5°F2.5°C 4.6°F-15.2°C 26% Calm Calm -- 29.55 in1000.7 mb 0.00 in0.0 mm 0.00 in0.0 mm 0.00 in0.0 mm
02:32 PM 36.3°F2.4°C 4.5°F-15.3°C 26% Calm Calm -- 29.55 in1000.7 mb 0.00 in0.0 mm 0.00 in0.0 mm 0.00 in0.0 mm
02:47 PM 36.5°F2.5°C 4.6°F-15.2°C 26% Calm Calm -- 29.55 in1000.7 mb 0.00 in0.0 mm 0.00 in0.0 mm 0.00 in0.0 mm
03:02 PM 36.7°F2.6°C 5.6°F-14.7°C 27% Calm Calm -- 29.54 in1000.3 mb 0.00 in0.0 mm 0.00 in0.0 mm 0.00 in0.0 mm
03:17 PM 36.9°F2.7°C 5.8°F-14.6°C 27% Calm Calm -- 29.54 in1000.3 mb 0.00 in0.0 mm 0.00 in0.0 mm 0.00 in0.0 mm
03:32 PM 36.9°F2.7°C 5.8°F-14.6°C 27% Calm Calm -- 29.54 in1000.3 mb 0.00 in0.0 mm 0.00 in0.0 mm 0.00 in0.0 mm
03:47 PM 36.9°F2.7°C 5.8°F-14.6°C 27% Calm Calm -- 29.54 in1000.3 mb 0.00 in0.0 mm 0.00 in0.0 mm 0.00 in0.0 mm
04:02 PM 37.2°F2.9°C 6.9°F-13.9°C 28% Calm Calm -- 29.54 in1000.3 mb 0.00 in0.0 mm 0.00 in0.0 mm 0.00 in0.0 mm
04:17 PM 37.0°F2.8°C 6.7°F-14.1°C 28% Calm Calm -- 29.54 in1000.3 mb 0.01 in0.3 mm 0.05 in1.3 mm 0.01 in0.3 mm
04:32 PM 37.0°F2.8°C 6.7°F-14.1°C 28% Calm Calm -- 29.54 in1000.3 mb 0.01 in0.3 mm 0.00 in0.0 mm 0.01 in0.3 mm
04:47 PM 36.9°F2.7°C 6.6°F-14.1°C 28% Calm Calm -- 29.54 in1000.3 mb 0.01 in0.3 mm 0.00 in0.0 mm 0.01 in0.3 mm
05:02 PM 37.0°F2.8°C 6.7°F-14.1°C 28% Calm Calm -- 29.53 in1000.0 mb 0.01 in0.3 mm 0.00 in0.0 mm 0.01 in0.3 mm
05:17 PM 37.0°F2.8°C 6.7°F-14.1°C 28% Calm Calm -- 29.53 in1000.0 mb 0.01 in0.3 mm 0.00 in0.0 mm 0.01 in0.3 mm
05:32 PM 37.0°F2.8°C 7.5°F-13.6°C 29% Calm Calm -- 29.53 in1000.0 mb 0.01 in0.3 mm 0.00 in0.0 mm 0.01 in0.3 mm
05:47 PM 37.4°F3.0°C 7.8°F-13.4°C 29% Calm Calm -- 29.53 in1000.0 mb 0.01 in0.3 mm 0.00 in0.0 mm 0.01 in0.3 mm
06:02 PM 37.2°F2.9°C 7.6°F-13.6°C 29% Calm Calm -- 29.53 in1000.0 mb 0.01 in0.3 mm 0.00 in0.0 mm 0.01 in0.3 mm
06:17 PM 37.6°F3.1°C 8.7°F-12.9°C 30% Calm Calm -- 29.52 in999.7 mb 0.00 in0.0 mm 0.00 in0.0 mm 0.01 in0.3 mm
06:32 PM 37.8°F3.2°C 8.9°F-12.8°C 30% Calm Calm -- 29.52 in999.7 mb 0.00 in0.0 mm 0.00 in0.0 mm 0.01 in0.3 mm
06:47 PM 37.8°F3.2°C 8.9°F-12.8°C 30% Calm Calm -- 29.52 in999.7 mb 0.00 in0.0 mm 0.00 in0.0 mm 0.01 in0.3 mm
07:02 PM 37.9°F3.3°C 9.8°F-12.3°C 31% Calm Calm -- 29.52 in999.7 mb 0.01 in0.3 mm 0.02 in0.5 mm 0.02 in0.5 mm
07:17 PM 38.1°F3.4°C 9.9°F-12.3°C 31% Calm Calm -- 29.53 in1000.0 mb 0.00 in0.0 mm 0.00 in0.0 mm 0.02 in0.5 mm
07:32 PM 38.1°F3.4°C 9.9°F-12.3°C 31% Calm Calm -- 29.52 in999.7 mb 0.00 in0.0 mm 0.00 in0.0 mm 0.02 in0.5 mm
07:47 PM 38.1°F3.4°C 10.6°F-11.9°C 32% Calm Calm -- 29.52 in999.7 mb 0.00 in0.0 mm 0.00 in0.0 mm 0.02 in0.5 mm
08:02 PM 38.3°F3.5°C 10.8°F-11.8°C 32% Calm Calm -- 29.53 in1000.0 mb 0.00 in0.0 mm 0.00 in0.0 mm 0.02 in0.5 mm
08:17 PM 38.5°F3.6°C 10.9°F-11.7°C 32% Calm Calm -- 29.53 in1000.0 mb 0.00 in0.0 mm 0.00 in0.0 mm 0.02 in0.5 mm
08:32 PM 38.5°F3.6°C 10.9°F-11.7°C 32% Calm Calm -- 29.53 in1000.0 mb 0.00 in0.0 mm 0.00 in0.0 mm 0.02 in0.5 mm
08:47 PM 38.3°F3.5°C 10.8°F-11.8°C 32% Calm Calm -- 29.53 in1000.0 mb 0.00 in0.0 mm 0.00 in0.0 mm 0.02 in0.5 mm
09:02 PM 38.1°F3.4°C 10.6°F-11.9°C 32% Calm Calm -- 29.53 in1000.0 mb 0.00 in0.0 mm 0.00 in0.0 mm 0.02 in0.5 mm
09:17 PM 38.3°F3.5°C 10.8°F-11.8°C 32% Calm Calm -- 29.54 in1000.3 mb 0.00 in0.0 mm 0.00 in0.0 mm 0.02 in0.5 mm
09:32 PM 37.9°F3.3°C 10.5°F-11.9°C 32% Calm Calm -- 29.53 in1000.0 mb 0.00 in0.0 mm 0.00 in0.0 mm 0.02 in0.5 mm
09:47 PM 37.9°F3.3°C 10.5°F-11.9°C 32% Calm Calm 0.6 mph1.0 kmh 29.53 in1000.0 mb 0.00 in0.0 mm 0.00 in0.0 mm 0.02 in0.5 mm
10:02 PM 37.9°F3.3°C 10.5°F-11.9°C 32% Calm Calm -- 29.53 in1000.0 mb 0.00 in0.0 mm 0.00 in0.0 mm 0.02 in0.5 mm
10:17 PM 37.8°F3.2°C 10.3°F-12.1°C 32% Calm Calm -- 29.53 in1000.0 mb 0.00 in0.0 mm 0.00 in0.0 mm 0.02 in0.5 mm
10:32 PM 37.9°F3.3°C 10.5°F-11.9°C 32% Calm Calm -- 29.53 in1000.0 mb 0.00 in0.0 mm 0.00 in0.0 mm 0.02 in0.5 mm
10:47 PM 37.4°F3.0°C 10.0°F-12.2°C 32% Calm Calm -- 29.53 in1000.0 mb 0.00 in0.0 mm 0.00 in0.0 mm 0.02 in0.5 mm
11:02 PM 37.2°F2.9°C 9.8°F-12.3°C 32% Calm Calm -- 29.54 in1000.3 mb 0.00 in0.0 mm 0.00 in0.0 mm 0.02 in0.5 mm
11:17 PM 37.2°F2.9°C 9.8°F-12.3°C 32% Calm Calm -- 29.54 in1000.3 mb 0.00 in0.0 mm 0.00 in0.0 mm 0.02 in0.5 mm
11:32 PM 37.0°F2.8°C 10.4°F-12.0°C 33% Calm Calm -- 29.54 in1000.3 mb 0.00 in0.0 mm 0.00 in0.0 mm 0.02 in0.5 mm
11:47 PM 37.8°F3.2°C 11.0°F-11.7°C 33% Calm Calm -- 29.54 in1000.3 mb 0.00 in0.0 mm 0.00 in0.0 mm 0.02 in0.5 mm